createdAt,value
2019-05-28T00:00:41.557Z,13.29
2019-05-28T00:01:41.568Z,13.39
2019-05-28T00:02:41.517Z,13.29
2019-05-28T00:03:41.588Z,13.41
2019-05-28T00:04:41.479Z,13.35
2019-05-28T00:05:41.470Z,13.43
2019-05-28T00:06:41.469Z,13.38
2019-05-28T00:07:41.571Z,13.44
2019-05-28T00:08:41.452Z,13.47
2019-05-28T00:09:41.502Z,13.48
2019-05-28T00:10:41.423Z,13.47
2019-05-28T00:11:41.493Z,13.48
2019-05-28T00:12:41.404Z,13.44
2019-05-28T00:13:41.484Z,13.48
2019-05-28T00:14:41.385Z,13.39
2019-05-28T00:15:42.445Z,13.47
2019-05-28T00:16:41.378Z,13.41
2019-05-28T00:17:41.457Z,13.35
2019-05-28T00:18:41.338Z,13.39
2019-05-28T00:19:41.399Z,13.28
2019-05-28T00:20:41.298Z,13.38
2019-05-28T00:21:41.311Z,13.32
2019-05-28T00:22:41.389Z,13.31
2019-05-28T00:23:41.270Z,13.31
2019-05-28T00:24:41.330Z,13.31
2019-05-28T00:25:41.242Z,13.31
2019-05-28T00:26:41.252Z,13.35
2019-05-28T00:27:41.232Z,13.31
2019-05-28T00:28:41.302Z,13.31
2019-05-28T00:29:41.214Z,13.25
2019-05-28T00:30:41.243Z,13.29
2019-05-28T00:31:41.209Z,13.35
2019-05-28T00:32:41.265Z,13.32
2019-05-28T00:33:41.159Z,13.31
2019-05-28T00:34:41.206Z,13.32
2019-05-28T00:35:41.157Z,13.31
2019-05-28T00:36:42.210Z,13.31
2019-05-28T00:37:41.108Z,13.32
2019-05-28T00:38:41.179Z,13.35
2019-05-28T00:39:41.090Z,13.25
2019-05-28T00:40:41.120Z,13.32
2019-05-28T00:41:41.100Z,13.31
2019-05-28T00:42:41.061Z,13.31
2019-05-28T00:43:41.125Z,13.35
2019-05-28T00:44:41.045Z,13.35
2019-05-28T00:45:41.065Z,13.32
2019-05-28T00:46:41.023Z,13.28
2019-05-28T00:47:40.999Z,13.28
2019-05-28T00:48:40.987Z,13.28
2019-05-28T00:49:41.034Z,13.29
2019-05-28T00:50:40.966Z,13.25
2019-05-28T00:51:40.998Z,13.29
2019-05-28T00:52:40.957Z,13.27
2019-05-28T00:53:42.027Z,13.28
2019-05-28T00:54:40.917Z,13.32
2019-05-28T00:55:40.938Z,13.28
2019-05-28T00:56:40.966Z,13.31
2019-05-28T00:57:40.982Z,13.32
2019-05-28T00:58:40.951Z,13.31
2019-05-28T00:59:40.870Z,13.38
2019-05-28T01:00:40.871Z,13.36
2019-05-28T01:01:40.854Z,13.39
2019-05-28T01:02:40.913Z,13.36
2019-05-28T01:03:40.884Z,13.43
2019-05-28T01:04:40.857Z,13.50
2019-05-28T01:05:40.813Z,13.39
2019-05-28T01:06:40.820Z,13.41
2019-05-28T01:07:40.857Z,13.41
2019-05-28T01:08:40.793Z,13.50
2019-05-28T01:09:40.765Z,13.50
2019-05-28T01:10:40.757Z,13.47
2019-05-28T01:11:40.747Z,13.50
2019-05-28T01:12:41.829Z,13.39
2019-05-28T01:13:40.718Z,13.47
2019-05-28T01:14:40.689Z,13.38
2019-05-28T01:15:40.680Z,13.38
2019-05-28T01:16:40.711Z,13.41
2019-05-28T01:17:40.672Z,13.38
2019-05-28T01:18:40.705Z,13.50
2019-05-28T01:19:40.643Z,13.35
2019-05-28T01:20:40.642Z,13.46
2019-05-28T01:21:42.529Z,13.47
2019-05-28T01:22:40.673Z,13.44
2019-05-28T01:23:40.610Z,13.35
2019-05-28T01:24:40.597Z,13.43
2019-05-28T01:25:40.575Z,13.35
2019-05-28T01:26:40.605Z,13.38
2019-05-28T01:27:40.557Z,13.35
2019-05-28T01:28:40.598Z,13.22
2019-05-28T01:29:40.539Z,13.27
2019-05-28T01:30:54.621Z,13.25
2019-05-28T01:31:41.519Z,13.22
2019-05-28T01:32:40.559Z,13.27
2019-05-28T01:33:40.482Z,13.27
2019-05-28T01:34:40.491Z,13.22
2019-05-28T01:35:40.465Z,13.25
2019-05-28T01:36:40.531Z,13.27
2019-05-28T01:37:40.462Z,13.24
2019-05-28T01:38:40.474Z,13.17
2019-05-28T01:39:40.427Z,13.22
2019-05-28T01:40:40.429Z,13.21
2019-05-28T01:41:40.398Z,13.21
2019-05-28T01:42:40.497Z,13.25
2019-05-28T01:43:40.369Z,13.22
2019-05-28T01:44:40.377Z,13.16
2019-05-28T01:45:40.349Z,13.22
2019-05-28T01:46:40.408Z,13.22
2019-05-28T01:47:40.344Z,13.29
2019-05-28T01:48:40.351Z,13.31
2019-05-28T01:49:40.300Z,13.35
2019-05-28T01:50:40.393Z,13.31
2019-05-28T01:51:40.356Z,13.31
2019-05-28T01:52:40.292Z,13.31
2019-05-28T01:53:40.293Z,13.36
2019-05-28T01:54:40.257Z,13.28
2019-05-28T01:55:40.334Z,13.25
2019-05-28T01:56:40.236Z,13.24
2019-05-28T01:57:40.304Z,13.16
2019-05-28T01:58:40.220Z,13.25
2019-05-28T01:59:40.299Z,13.24
2019-05-28T02:00:40.178Z,13.24
2019-05-28T02:01:40.180Z,13.25
2019-05-28T02:02:40.167Z,13.32
2019-05-28T02:03:40.167Z,13.16
2019-05-28T02:04:40.130Z,13.28
2019-05-28T02:05:40.208Z,13.16
2019-05-28T02:06:40.119Z,13.25
2019-05-28T02:07:40.189Z,13.24
2019-05-28T02:08:40.091Z,13.21
2019-05-28T02:09:40.181Z,13.21
2019-05-28T02:10:40.074Z,13.19
2019-05-28T02:11:41.153Z,13.17
2019-05-28T02:12:40.052Z,13.17
2019-05-28T02:13:40.043Z,13.21
2019-05-28T02:14:40.014Z,13.22
2019-05-28T02:15:40.140Z,13.25
2019-05-28T02:16:40.001Z,13.21
2019-05-28T02:17:39.996Z,13.25
2019-05-28T02:18:39.977Z,13.28
2019-05-28T02:19:40.059Z,13.24
2019-05-28T02:20:40.012Z,13.25
2019-05-28T02:21:40.000Z,13.12
2019-05-28T02:22:39.948Z,13.22
2019-05-28T02:23:40.040Z,13.17
2019-05-28T02:24:39.914Z,13.19
2019-05-28T02:25:39.971Z,13.19
2019-05-28T02:26:39.884Z,13.10
2019-05-28T02:27:39.891Z,13.13
2019-05-28T02:28:39.862Z,13.13
2019-05-28T02:29:39.943Z,13.09
2019-05-28T02:30:39.833Z,13.09
2019-05-28T02:31:39.881Z,13.17
2019-05-28T02:32:39.833Z,13.13
2019-05-28T02:33:39.916Z,13.09
2019-05-28T02:34:39.810Z,13.10
2019-05-28T02:35:39.856Z,13.04
2019-05-28T02:36:39.780Z,13.10
2019-05-28T02:37:39.837Z,13.07
2019-05-28T02:38:39.760Z,13.09
2019-05-28T02:39:39.830Z,13.06
2019-05-28T02:40:39.719Z,13.07
2019-05-28T02:41:39.752Z,13.07
2019-05-28T02:42:39.809Z,13.09
2019-05-28T02:43:39.692Z,13.07
2019-05-28T02:44:39.686Z,13.09
2019-05-28T02:45:39.736Z,13.12
2019-05-28T02:46:39.653Z,13.13
2019-05-28T02:47:39.669Z,13.09
2019-05-28T02:48:39.683Z,13.07
2019-05-28T02:49:39.670Z,13.06
2019-05-28T02:50:39.675Z,12.95
2019-05-28T02:51:39.606Z,12.94
2019-05-28T02:52:39.625Z,12.98
2019-05-28T02:53:39.627Z,13.12
2019-05-28T02:54:39.567Z,13.09
2019-05-28T02:55:39.613Z,13.01
2019-05-28T02:56:39.542Z,12.98
2019-05-28T02:57:39.551Z,13.01
2019-05-28T02:58:39.539Z,13.07
2019-05-28T02:59:39.524Z,13.06
2019-05-28T03:00:39.551Z,13.06
2019-05-28T03:01:44.480Z,13.10
2019-05-28T03:02:40.511Z,13.10
2019-05-28T03:03:39.481Z,13.10
2019-05-28T03:04:39.466Z,13.04
2019-05-28T03:05:39.494Z,13.01
2019-05-28T03:06:39.444Z,13.14
2019-05-28T03:07:39.537Z,13.07
2019-05-28T03:08:39.435Z,13.13
2019-05-28T03:09:39.395Z,12.98
2019-05-28T03:11:04.559Z,13.09
2019-05-28T03:11:40.420Z,13.04
2019-05-28T03:12:39.357Z,13.04
2019-05-28T03:13:39.489Z,13.03
2019-05-28T03:14:39.412Z,13.01
2019-05-28T03:15:39.329Z,13.12
2019-05-28T03:16:39.340Z,13.04
2019-05-28T03:17:39.326Z,12.99
2019-05-28T03:18:39.422Z,12.99
2019-05-28T03:19:39.291Z,12.95
2019-05-28T03:20:39.322Z,12.95
2019-05-28T03:21:39.273Z,12.95
2019-05-28T03:22:39.353Z,13.01
2019-05-28T03:23:39.266Z,12.99
2019-05-28T03:24:39.295Z,12.99
2019-05-28T03:25:39.228Z,12.99
2019-05-28T03:26:39.230Z,12.94
2019-05-28T03:27:39.196Z,12.95
2019-05-28T03:28:39.353Z,12.98
2019-05-28T03:29:39.167Z,12.96
2019-05-28T03:30:39.158Z,12.95
2019-05-28T03:31:39.166Z,13.04
2019-05-28T03:32:39.235Z,13.04
2019-05-28T03:33:39.166Z,12.96
2019-05-28T03:34:42.059Z,13.01
2019-05-28T03:35:39.110Z,12.95
2019-05-28T03:36:39.212Z,13.03
2019-05-28T03:37:39.091Z,13.04
2019-05-28T03:38:39.182Z,12.99
2019-05-28T03:39:39.052Z,13.07
2019-05-28T03:40:39.089Z,13.09
2019-05-28T03:41:39.034Z,13.09
2019-05-28T03:42:39.114Z,13.09
2019-05-28T03:43:39.035Z,13.03
2019-05-28T03:44:39.046Z,13.06
2019-05-28T03:45:38.997Z,13.12
2019-05-28T03:46:38.976Z,13.10
2019-05-28T03:47:39.060Z,13.10
2019-05-28T03:48:38.988Z,13.14
2019-05-28T03:49:38.988Z,13.13
2019-05-28T03:50:38.944Z,13.10
2019-05-28T03:51:38.929Z,13.13
2019-05-28T03:52:38.990Z,13.14
2019-05-28T03:53:38.930Z,13.12
2019-05-28T03:54:38.971Z,13.12
2019-05-28T03:55:38.884Z,13.24
2019-05-28T03:56:38.862Z,13.22
2019-05-28T03:57:38.899Z,13.19
2019-05-28T03:58:38.975Z,13.24
2019-05-28T03:59:38.845Z,13.14
2019-05-28T04:00:38.958Z,13.24
2019-05-28T04:01:38.824Z,13.24
2019-05-28T04:02:38.877Z,13.24
2019-05-28T04:03:38.796Z,13.27
2019-05-28T04:04:38.869Z,13.25
2019-05-28T04:05:38.777Z,13.22
2019-05-28T04:06:38.839Z,13.27
2019-05-28T04:07:38.739Z,13.22
2019-05-28T04:08:38.779Z,13.25
2019-05-28T04:09:38.731Z,13.25
2019-05-28T04:10:38.820Z,13.28
2019-05-28T04:11:44.906Z,13.28
2019-05-28T04:12:39.683Z,13.25
2019-05-28T04:13:38.722Z,13.31
2019-05-28T04:14:38.683Z,13.24
2019-05-28T04:15:38.763Z,13.31
2019-05-28T04:16:38.659Z,13.28
2019-05-28T04:17:38.636Z,13.31
2019-05-28T04:18:38.668Z,13.32
2019-05-28T04:19:38.692Z,13.29
2019-05-28T04:20:38.701Z,13.32
2019-05-28T04:21:38.589Z,13.35
2019-05-28T04:22:38.641Z,13.41
2019-05-28T04:23:41.578Z,13.31
2019-05-28T04:24:38.618Z,13.43
2019-05-28T04:25:38.541Z,13.43
2019-05-28T04:26:38.612Z,13.41
2019-05-28T04:27:38.520Z,13.46
2019-05-28T04:28:38.501Z,13.46
2019-05-28T04:29:38.520Z,13.44
2019-05-28T04:30:38.572Z,13.46
2019-05-28T04:31:38.481Z,13.50
2019-05-28T04:32:41.076Z,13.48
2019-05-28T04:33:38.453Z,13.53
2019-05-28T04:34:38.505Z,13.54
2019-05-28T04:35:38.425Z,13.57
2019-05-28T04:36:38.486Z,13.54
2019-05-28T04:37:38.406Z,13.54
2019-05-28T04:38:38.400Z,13.53
2019-05-28T04:39:38.399Z,13.69
2019-05-28T04:40:38.468Z,13.68
2019-05-28T04:41:38.359Z,13.68
2019-05-28T04:42:38.409Z,13.65
2019-05-28T04:43:38.369Z,13.68
2019-05-28T04:44:38.349Z,13.75
2019-05-28T04:45:38.409Z,13.66
2019-05-28T04:46:38.311Z,13.69
2019-05-28T04:47:38.353Z,13.76
2019-05-28T04:48:38.291Z,13.73
2019-05-28T04:49:38.289Z,13.81
2019-05-28T04:50:38.363Z,13.84
2019-05-28T04:51:38.244Z,13.81
2019-05-28T04:52:38.274Z,13.90
2019-05-28T04:53:38.225Z,13.90
2019-05-28T04:54:38.226Z,13.94
2019-05-28T04:55:38.196Z,13.99
2019-05-28T04:56:38.255Z,13.99
2019-05-28T04:57:38.179Z,14.01
2019-05-28T04:58:39.207Z,14.12
2019-05-28T04:59:38.209Z,14.16
2019-05-28T05:00:38.150Z,14.08
2019-05-28T05:01:38.239Z,14.09
2019-05-28T05:02:38.136Z,14.08
2019-05-28T05:03:38.231Z,14.21
2019-05-28T05:04:38.111Z,14.23
2019-05-28T05:05:38.102Z,14.16
2019-05-28T05:06:38.145Z,14.21
2019-05-28T05:07:38.080Z,14.29
2019-05-28T05:08:38.164Z,14.26
2019-05-28T05:09:38.043Z,14.36
2019-05-28T05:10:38.045Z,14.36
2019-05-28T05:11:38.074Z,14.48
2019-05-28T05:12:38.007Z,14.39
2019-05-28T05:13:38.118Z,14.42
2019-05-28T05:14:37.998Z,14.49
2019-05-28T05:15:37.997Z,14.52
2019-05-28T05:16:38.030Z,14.36
2019-05-28T05:17:37.959Z,14.45
2019-05-28T05:18:38.039Z,14.48
2019-05-28T05:19:37.934Z,14.53
2019-05-28T05:20:37.943Z,14.54
2019-05-28T05:21:37.913Z,14.52
2019-05-28T05:22:37.925Z,14.56
2019-05-28T05:23:37.885Z,14.53
2019-05-28T05:24:37.963Z,14.67
2019-05-28T05:25:37.874Z,14.56
2019-05-28T05:26:37.895Z,14.54
2019-05-28T05:27:37.833Z,14.60
2019-05-28T05:28:37.935Z,14.54
2019-05-28T05:29:37.825Z,14.71
2019-05-28T05:30:37.917Z,14.75
2019-05-28T05:31:37.810Z,14.72
2019-05-28T05:32:37.907Z,14.74
2019-05-28T05:33:37.777Z,14.72
2019-05-28T05:34:37.840Z,14.74
2019-05-28T05:35:37.781Z,14.75
2019-05-28T05:36:37.740Z,14.86
2019-05-28T05:37:37.731Z,14.86
2019-05-28T05:38:37.811Z,14.80
2019-05-28T05:39:37.702Z,14.95
2019-05-28T05:40:37.926Z,14.90
2019-05-28T05:41:37.725Z,14.93
2019-05-28T05:42:37.683Z,14.87
2019-05-28T05:43:37.752Z,14.83
2019-05-28T05:44:37.655Z,14.79
2019-05-28T05:45:37.807Z,14.79
2019-05-28T05:46:37.645Z,14.86
2019-05-28T05:47:37.635Z,14.93
2019-05-28T05:48:37.685Z,15.01
2019-05-28T05:49:37.586Z,15.04
2019-05-28T05:50:38.700Z,15.05
2019-05-28T05:51:37.570Z,15.13
2019-05-28T05:52:37.667Z,15.20
2019-05-28T05:53:37.550Z,15.12
2019-05-28T05:54:37.599Z,15.22
2019-05-28T05:55:37.541Z,15.19
2019-05-28T05:56:37.544Z,15.25
2019-05-28T05:57:37.511Z,15.28
2019-05-28T05:58:38.601Z,15.35
2019-05-28T05:59:37.492Z,15.43
2019-05-28T06:00:38.584Z,15.35
2019-05-28T06:01:37.465Z,15.30
2019-05-28T06:02:37.443Z,15.41
2019-05-28T06:03:40.639Z,15.31
2019-05-28T06:04:37.475Z,15.34
2019-05-28T06:05:37.436Z,15.28
2019-05-28T06:06:37.428Z,15.23
2019-05-28T06:07:37.492Z,15.28
2019-05-28T06:08:37.441Z,15.35
2019-05-28T06:09:37.444Z,15.30
2019-05-28T06:10:37.388Z,15.33
2019-05-28T06:11:38.379Z,15.35
2019-05-28T06:12:37.340Z,15.35
2019-05-28T06:13:37.401Z,15.35
2019-05-28T06:14:38.137Z,15.28
2019-05-28T06:15:37.332Z,15.43
2019-05-28T06:16:37.314Z,15.37
2019-05-28T06:17:44.233Z,15.51
2019-05-28T06:18:37.266Z,15.43
2019-05-28T06:19:37.304Z,15.44
2019-05-28T06:20:37.279Z,15.52
2019-05-28T06:21:37.285Z,15.62
2019-05-28T06:22:37.216Z,15.71
2019-05-28T06:23:37.206Z,15.76
2019-05-28T06:24:37.247Z,15.74
2019-05-28T06:25:37.206Z,15.77
2019-05-28T06:26:38.258Z,15.86
2019-05-28T06:27:37.175Z,15.88
2019-05-28T06:28:37.159Z,15.95
2019-05-28T06:29:37.150Z,16.04
2019-05-28T06:30:37.260Z,16.01
2019-05-28T06:31:37.131Z,16.07
2019-05-28T06:32:38.422Z,16.03
2019-05-28T06:33:37.091Z,16.03
2019-05-28T06:34:37.123Z,15.96
2019-05-28T06:35:37.074Z,15.98
2019-05-28T06:36:37.104Z,15.99
2019-05-28T06:37:37.071Z,16.06
2019-05-28T06:38:37.034Z,15.99
2019-05-28T06:39:37.042Z,16.17
2019-05-28T06:40:37.035Z,16.11
2019-05-28T06:41:37.017Z,16.13
2019-05-28T06:42:39.787Z,16.18
2019-05-28T06:43:36.989Z,16.29
2019-05-28T06:44:37.009Z,16.18
2019-05-28T06:45:36.964Z,16.27
2019-05-28T06:46:36.988Z,16.29
2019-05-28T06:47:36.939Z,16.34
2019-05-28T06:48:36.986Z,16.42
2019-05-28T06:49:36.910Z,16.41
2019-05-28T06:50:37.031Z,16.44
2019-05-28T06:51:36.901Z,16.41
2019-05-28T06:52:37.974Z,16.32
2019-05-28T06:53:36.873Z,16.34
2019-05-28T06:54:36.871Z,16.34
2019-05-28T06:55:36.968Z,16.32
2019-05-28T06:56:36.869Z,16.29
2019-05-28T06:57:36.895Z,16.33
2019-05-28T06:58:39.911Z,16.30
2019-05-28T06:59:36.806Z,16.34
2019-05-28T07:00:36.898Z,16.45
2019-05-28T07:01:36.797Z,16.48
2019-05-28T07:02:36.839Z,16.59
2019-05-28T07:03:36.769Z,16.55
2019-05-28T07:04:36.738Z,16.70
2019-05-28T07:05:36.730Z,16.77
2019-05-28T07:06:36.853Z,16.85
2019-05-28T07:07:36.711Z,16.91
2019-05-28T07:08:36.744Z,16.90
2019-05-28T07:09:36.702Z,16.90
2019-05-28T07:10:36.825Z,16.99
2019-05-28T07:11:36.697Z,16.98
2019-05-28T07:12:37.746Z,17.06
2019-05-28T07:13:36.667Z,17.17
2019-05-28T07:14:37.685Z,17.03
2019-05-28T07:15:36.615Z,17.05
2019-05-28T07:16:51.998Z,17.00
2019-05-28T07:17:37.596Z,17.02
2019-05-28T07:18:36.617Z,16.98
2019-05-28T07:19:36.579Z,16.99
2019-05-28T07:20:36.668Z,17.05
2019-05-28T07:21:36.572Z,17.15
2019-05-28T07:22:36.600Z,17.03
2019-05-28T07:23:36.543Z,17.00
2019-05-28T07:24:36.620Z,17.10
2019-05-28T07:25:36.493Z,17.10
2019-05-28T07:26:36.622Z,17.18
2019-05-28T07:27:36.488Z,17.14
2019-05-28T07:28:37.523Z,17.09
2019-05-28T07:29:36.476Z,17.17
2019-05-28T07:30:36.455Z,17.05
2019-05-28T07:31:36.458Z,16.92
2019-05-28T07:32:36.545Z,16.99
2019-05-28T07:33:36.419Z,16.91
2019-05-28T07:34:36.507Z,16.84
2019-05-28T07:35:45.364Z,16.82
2019-05-28T07:36:37.399Z,16.87
2019-05-28T07:37:36.446Z,16.81
2019-05-28T07:38:36.369Z,16.78
2019-05-28T07:39:36.471Z,16.78
2019-05-28T07:40:36.351Z,16.72
2019-05-28T07:41:36.361Z,16.70
2019-05-28T07:42:36.317Z,16.87
2019-05-28T07:43:36.340Z,16.91
2019-05-28T07:44:36.292Z,16.96
2019-05-28T07:45:36.353Z,16.98
2019-05-28T07:46:36.274Z,17.00
2019-05-28T07:47:36.383Z,17.07
2019-05-28T07:48:36.247Z,17.10
2019-05-28T07:49:36.333Z,17.17
2019-05-28T07:50:36.236Z,17.10
2019-05-28T07:51:36.228Z,17.28
2019-05-28T07:52:36.310Z,17.36
2019-05-28T07:53:40.018Z,17.35
2019-05-28T07:54:39.236Z,17.35
2019-05-28T07:55:36.239Z,17.36
2019-05-28T07:56:36.163Z,17.46
2019-05-28T07:57:36.161Z,17.54
2019-05-28T07:58:36.141Z,17.74
2019-05-28T07:59:36.122Z,17.83
2019-05-28T08:00:38.115Z,17.83
2019-05-28T08:01:36.106Z,17.94
2019-05-28T08:02:36.104Z,18.05
2019-05-28T08:03:36.195Z,18.13
2019-05-28T08:04:46.952Z,18.10
2019-05-28T08:05:37.065Z,18.26
2019-05-28T08:06:53.493Z,18.23
2019-05-28T08:07:37.056Z,18.36
2019-05-28T08:08:36.027Z,18.46
2019-05-28T08:09:36.109Z,18.62
2019-05-28T08:10:35.991Z,18.69
2019-05-28T08:11:36.037Z,18.75
2019-05-28T08:12:35.991Z,18.83
2019-05-28T08:13:40.848Z,18.94
2019-05-28T08:14:36.950Z,18.91
2019-05-28T08:15:36.000Z,18.91
2019-05-28T08:16:35.932Z,19.13
2019-05-28T08:17:35.982Z,19.05
2019-05-28T08:18:35.913Z,19.01
2019-05-28T08:19:35.984Z,19.06
2019-05-28T08:20:35.894Z,19.15
2019-05-28T08:21:35.914Z,19.25
2019-05-28T08:22:42.284Z,19.30
2019-05-28T08:23:36.866Z,19.21
2019-05-28T08:24:35.827Z,19.27
2019-05-28T08:25:46.983Z,19.25
2019-05-28T08:26:36.819Z,19.16
2019-05-28T08:27:35.871Z,19.02
2019-05-28T08:28:35.798Z,19.16
2019-05-28T08:29:35.859Z,19.10
2019-05-28T08:30:35.781Z,19.06
2019-05-28T08:31:35.800Z,19.06
2019-05-28T08:32:35.811Z,19.15
2019-05-28T08:33:35.833Z,19.16
2019-05-28T08:34:35.742Z,19.01
2019-05-28T08:35:35.773Z,18.86
2019-05-28T08:36:35.706Z,18.89
2019-05-28T08:37:35.716Z,18.86
2019-05-28T08:38:35.666Z,18.79
2019-05-28T08:39:35.666Z,18.79
2019-05-28T08:40:36.726Z,18.83
2019-05-28T08:41:35.648Z,18.89
2019-05-28T08:42:35.688Z,18.84
2019-05-28T08:43:35.627Z,18.87
2019-05-28T08:44:35.618Z,18.91
2019-05-28T08:45:35.621Z,18.86
2019-05-28T08:46:35.619Z,18.76
2019-05-28T08:47:35.610Z,18.79
2019-05-28T08:48:35.672Z,18.79
2019-05-28T08:49:35.572Z,18.75
2019-05-28T08:50:35.593Z,18.66
2019-05-28T08:51:35.543Z,18.71
2019-05-28T08:52:35.577Z,18.72
2019-05-28T08:53:35.538Z,18.86
2019-05-28T08:54:35.572Z,18.84
2019-05-28T08:55:35.502Z,18.96
2019-05-28T08:56:35.500Z,19.07
2019-05-28T08:57:35.569Z,19.16
2019-05-28T08:58:35.536Z,19.24
2019-05-28T08:59:35.460Z,19.16
2019-05-28T09:00:35.418Z,19.28
2019-05-28T09:01:35.430Z,19.38
2019-05-28T09:02:35.522Z,19.42
2019-05-28T09:03:35.505Z,19.57
2019-05-28T09:04:35.465Z,19.57
2019-05-28T09:05:35.392Z,19.64
2019-05-28T09:06:35.406Z,19.60
2019-05-28T09:07:35.348Z,19.53
2019-05-28T09:08:39.798Z,19.68
2019-05-28T09:09:35.336Z,19.64
2019-05-28T09:10:37.682Z,19.58
2019-05-28T09:11:35.315Z,19.75
2019-05-28T09:12:35.401Z,19.67
2019-05-28T09:13:35.333Z,19.55
2019-05-28T09:14:55.129Z,19.38
2019-05-28T09:15:36.283Z,19.27
2019-05-28T09:16:35.265Z,19.31
2019-05-28T09:17:35.252Z,19.27
2019-05-28T09:18:35.341Z,19.35
2019-05-28T09:19:35.220Z,19.43
2019-05-28T09:20:35.251Z,19.25
2019-05-28T09:21:37.261Z,19.21
2019-05-28T09:22:35.193Z,19.27
2019-05-28T09:23:35.281Z,19.31
2019-05-28T09:24:35.144Z,19.35
2019-05-28T09:25:35.175Z,19.38
2019-05-28T09:26:35.146Z,19.34
2019-05-28T09:27:35.217Z,19.45
2019-05-28T09:28:35.146Z,19.50
2019-05-28T09:29:35.155Z,19.53
2019-05-28T09:30:35.113Z,19.49
2019-05-28T09:31:35.196Z,19.35
2019-05-28T09:32:35.103Z,19.35
2019-05-28T09:33:35.168Z,19.23
2019-05-28T09:34:35.071Z,19.20
2019-05-28T09:35:44.475Z,19.21
2019-05-28T09:36:36.034Z,19.27
2019-05-28T09:37:35.026Z,19.40
2019-05-28T09:38:35.025Z,19.40
2019-05-28T09:39:35.035Z,19.52
2019-05-28T09:40:49.048Z,19.70
2019-05-28T09:41:35.963Z,19.83
2019-05-28T09:42:35.044Z,19.94
2019-05-28T09:43:34.977Z,20.08
2019-05-28T09:44:34.976Z,20.15
2019-05-28T09:45:34.941Z,20.12
2019-05-28T09:46:36.036Z,20.13
2019-05-28T09:47:34.906Z,20.17
2019-05-28T09:48:34.907Z,20.20
2019-05-28T09:49:34.909Z,20.23
2019-05-28T09:50:34.877Z,20.25
2019-05-28T09:51:34.949Z,20.30
2019-05-28T09:52:34.850Z,20.31
2019-05-28T09:53:35.218Z,20.40
2019-05-28T09:54:34.832Z,20.53
2019-05-28T09:55:34.929Z,20.48
2019-05-28T09:56:34.813Z,20.63
2019-05-28T09:57:46.828Z,20.60
2019-05-28T09:58:35.866Z,20.66
2019-05-28T09:59:41.623Z,20.73
2019-05-28T10:00:35.776Z,20.75
2019-05-28T10:01:37.077Z,20.66
2019-05-28T10:02:34.796Z,20.66
2019-05-28T10:03:34.748Z,20.61
2019-05-28T10:04:48.129Z,20.68
2019-05-28T10:05:35.726Z,20.82
2019-05-28T10:06:37.839Z,20.76
2019-05-28T10:07:34.740Z,20.75
2019-05-28T10:08:34.691Z,20.56
2019-05-28T10:09:34.779Z,20.66
2019-05-28T10:10:34.660Z,20.69
2019-05-28T10:11:35.741Z,20.58
2019-05-28T10:12:34.642Z,20.63
2019-05-28T10:13:40.617Z,20.83
2019-05-28T10:14:35.603Z,20.96
2019-05-28T10:15:34.617Z,20.87
2019-05-28T10:16:34.605Z,20.91
2019-05-28T10:17:34.628Z,20.81
2019-05-28T10:18:34.575Z,20.64
2019-05-28T10:19:34.597Z,20.53
2019-05-28T10:20:37.869Z,20.50
2019-05-28T10:21:34.607Z,20.30
2019-05-28T10:22:34.518Z,20.22
2019-05-28T10:23:34.529Z,20.37
2019-05-28T10:24:34.509Z,20.35
2019-05-28T10:25:34.573Z,20.50
2019-05-28T10:26:34.481Z,20.48
2019-05-28T10:27:34.502Z,20.57
2019-05-28T10:28:34.452Z,20.58
2019-05-28T10:29:34.481Z,20.50
2019-05-28T10:30:34.423Z,20.34
2019-05-28T10:31:34.426Z,20.13
2019-05-28T10:32:34.425Z,20.23
2019-05-28T10:33:34.415Z,20.34
2019-05-28T10:34:34.398Z,20.37
2019-05-28T10:35:34.455Z,20.22
2019-05-28T10:36:37.275Z,20.23
2019-05-28T10:37:34.398Z,20.25
2019-05-28T10:38:34.337Z,20.31
2019-05-28T10:39:35.399Z,20.31
2019-05-28T10:40:34.319Z,20.33
2019-05-28T10:41:34.378Z,20.26
2019-05-28T10:42:34.311Z,20.38
2019-05-28T10:43:34.292Z,20.20
2019-05-28T10:44:34.278Z,19.86
2019-05-28T10:45:34.353Z,19.98
2019-05-28T10:46:34.243Z,20.19
2019-05-28T10:47:34.223Z,20.30
2019-05-28T10:48:34.213Z,20.26
2019-05-28T10:49:34.255Z,20.16
2019-05-28T10:50:34.205Z,20.10
2019-05-28T10:51:34.246Z,20.12
2019-05-28T10:52:34.198Z,20.10
2019-05-28T10:53:34.178Z,20.19
2019-05-28T10:54:35.207Z,20.12
2019-05-28T10:55:34.138Z,19.82
2019-05-28T10:56:34.179Z,19.85
2019-05-28T10:57:34.139Z,19.90
2019-05-28T10:58:34.110Z,20.05
2019-05-28T10:59:34.137Z,19.90
2019-05-28T11:00:34.081Z,20.04
2019-05-28T11:01:34.325Z,19.92
2019-05-28T11:02:34.229Z,19.94
2019-05-28T11:03:34.293Z,20.04
2019-05-28T11:04:34.260Z,20.07
2019-05-28T11:05:34.292Z,20.16
2019-05-28T11:06:34.027Z,20.27
2019-05-28T11:07:34.025Z,20.44
2019-05-28T11:08:34.002Z,20.46
2019-05-28T11:09:33.989Z,20.51
2019-05-28T11:10:34.125Z,20.56
2019-05-28T11:11:33.959Z,20.61
2019-05-28T11:12:33.969Z,20.48
2019-05-28T11:13:34.175Z,20.46
2019-05-28T11:14:33.964Z,20.54
2019-05-28T11:15:33.922Z,20.50
2019-05-28T11:16:33.952Z,20.31
2019-05-28T11:17:33.905Z,20.22
2019-05-28T11:18:33.992Z,20.01
2019-05-28T11:19:33.906Z,19.89
2019-05-28T11:20:33.934Z,19.95
2019-05-28T11:21:33.835Z,20.01
2019-05-28T11:22:33.855Z,19.98
2019-05-28T11:23:33.826Z,19.97
2019-05-28T11:24:33.937Z,19.90
2019-05-28T11:25:33.834Z,19.94
2019-05-28T11:26:33.833Z,19.83
2019-05-28T11:27:33.778Z,19.78
2019-05-28T11:28:33.995Z,19.62
2019-05-28T11:29:33.783Z,19.53
2019-05-28T11:30:33.766Z,19.47
2019-05-28T11:31:33.752Z,19.38
2019-05-28T11:32:34.752Z,19.31
2019-05-28T11:33:33.725Z,19.28
2019-05-28T11:34:33.987Z,19.31
2019-05-28T11:35:33.695Z,19.07
2019-05-28T11:36:33.705Z,18.96
2019-05-28T11:37:33.665Z,18.76
2019-05-28T11:38:35.127Z,18.75
2019-05-28T11:39:33.682Z,18.68
2019-05-28T11:40:34.942Z,18.74
2019-05-28T11:41:41.999Z,18.65
2019-05-28T11:42:35.181Z,18.44
2019-05-28T11:43:36.796Z,18.29
2019-05-28T11:44:34.836Z,18.32
2019-05-28T11:45:34.433Z,18.26
2019-05-28T11:46:35.162Z,18.17
2019-05-28T11:47:34.652Z,18.10
2019-05-28T11:48:34.064Z,18.09
2019-05-28T11:49:33.691Z,17.99
2019-05-28T11:50:36.783Z,17.95
2019-05-28T11:51:33.619Z,18.04
2019-05-28T11:52:34.233Z,17.98
2019-05-28T11:53:36.796Z,18.13
2019-05-28T11:54:40.369Z,18.14
2019-05-28T11:55:34.726Z,18.16
2019-05-28T11:56:33.751Z,18.09
2019-05-28T11:57:33.662Z,18.10
2019-05-28T11:58:33.602Z,18.19
2019-05-28T11:59:33.757Z,18.14
2019-05-28T12:00:33.754Z,18.23
2019-05-28T12:01:35.297Z,18.23
2019-05-28T12:02:33.383Z,18.26
2019-05-28T12:03:33.383Z,18.31
2019-05-28T12:04:33.424Z,18.28
2019-05-28T12:05:33.365Z,18.20
2019-05-28T12:06:38.154Z,18.04
2019-05-28T12:07:34.325Z,18.04
2019-05-28T12:08:33.406Z,18.10
2019-05-28T12:09:33.306Z,18.21
2019-05-28T12:10:33.373Z,18.13
2019-05-28T12:11:33.278Z,18.34
2019-05-28T12:12:33.360Z,18.44
2019-05-28T12:13:33.326Z,18.49
2019-05-28T12:14:33.251Z,18.62
2019-05-28T12:15:33.311Z,18.59
2019-05-28T12:16:33.231Z,18.59
2019-05-28T12:17:42.245Z,18.54
2019-05-28T12:18:34.190Z,18.49
2019-05-28T12:19:33.235Z,18.41
2019-05-28T12:20:33.204Z,18.49
2019-05-28T12:21:33.291Z,18.56
2019-05-28T12:22:33.155Z,18.54
2019-05-28T12:23:33.203Z,18.60
2019-05-28T12:24:33.137Z,18.54
2019-05-28T12:25:33.179Z,18.54
2019-05-28T12:26:33.120Z,18.62
2019-05-28T12:27:33.190Z,18.71
2019-05-28T12:28:38.131Z,18.62
2019-05-28T12:29:34.189Z,18.64
2019-05-28T12:30:34.268Z,18.79
2019-05-28T12:31:34.324Z,18.86
2019-05-28T12:32:33.223Z,18.87
2019-05-28T12:33:33.255Z,18.94
2019-05-28T12:34:33.171Z,18.94
2019-05-28T12:35:33.454Z,18.96
2019-05-28T12:36:33.780Z,18.99
2019-05-28T12:37:47.294Z,19.09
2019-05-28T12:38:34.078Z,19.23
2019-05-28T12:39:34.275Z,19.25
2019-05-28T12:40:47.126Z,19.38
2019-05-28T12:41:34.021Z,19.43
2019-05-28T12:42:33.378Z,19.40
2019-05-28T12:43:33.347Z,19.43
2019-05-28T12:44:42.149Z,19.34
2019-05-28T12:45:36.253Z,19.28
2019-05-28T12:46:32.919Z,19.25
2019-05-28T12:47:32.962Z,19.24
2019-05-28T12:48:32.888Z,19.27
2019-05-28T12:49:32.909Z,19.39
2019-05-28T12:50:32.855Z,19.32
2019-05-28T12:51:32.855Z,19.39
2019-05-28T12:52:32.907Z,19.46